Time;durP1;ratioP1;P1;durP2;ratioP2;P2;SDS_P1;SDS_P2;PMS_P1;PMS_P2;Temp;Humidity;BMP_temperature;BMP_pressure;BME280_temperature;BME280_humidity;BME280_pressure;Samples;Min_cycle;Max_cycle;Signal;HPM_P1;HPM_P2
2023/07/27 00:02:03;;;;;;;9.00;4.07;;;15.20;99.90;;;;;;4977110;28;20048;-85
2023/07/27 00:04:28;;;;;;;11.02;6.47;;;15.10;99.90;;;;;;4977435;28;20042;-85
2023/07/27 00:06:54;;;;;;;10.05;6.40;;;15.20;99.90;;;;;;4977553;28;20132;-85
2023/07/27 00:09:19;;;;;;;8.85;3.80;;;15.20;99.90;;;;;;4977328;28;20046;-85
2023/07/27 00:11:45;;;;;;;9.15;4.43;;;15.10;99.90;;;;;;4977057;28;20050;-85
2023/07/27 00:14:11;;;;;;;9.48;4.38;;;15.10;99.90;;;;;;4993199;28;20034;-85
2023/07/27 00:16:36;;;;;;;13.63;6.28;;;15.00;99.90;;;;;;4992982;28;20588;-85
2023/07/27 00:19:02;;;;;;;10.25;5.93;;;15.10;99.90;;;;;;4977190;28;20124;-85
2023/07/27 00:21:28;;;;;;;10.52;3.67;;;15.20;99.90;;;;;;4993353;28;20066;-85
2023/07/27 00:23:53;;;;;;;11.43;6.70;;;15.10;99.90;;;;;;4977000;28;20045;-85
2023/07/27 00:26:19;;;;;;;9.00;3.42;;;15.20;99.90;;;;;;4993233;28;20414;-85
2023/07/27 00:28:44;;;;;;;10.23;6.68;;;15.10;99.90;;;;;;4993301;28;20041;-85
2023/07/27 00:31:10;;;;;;;10.20;4.15;;;15.10;99.90;;;;;;4993476;28;20046;-85
2023/07/27 00:33:36;;;;;;;11.35;6.53;;;15.10;99.90;;;;;;4993038;28;20489;-85
2023/07/27 00:36:01;;;;;;;12.00;4.03;;;15.20;99.90;;;;;;4977950;28;20048;-85
2023/07/27 00:38:27;;;;;;;8.27;3.65;;;15.20;99.90;;;;;;4996982;28;20240;-86
2023/07/27 00:40:53;;;;;;;9.23;4.13;;;15.10;99.90;;;;;;4980892;28;20038;-85
2023/07/27 00:43:19;;;;;;;9.88;6.95;;;15.10;99.90;;;;;;4996997;28;20402;-85
2023/07/27 00:45:46;;;;;;;11.18;6.32;;;15.20;99.90;;;;;;4980977;28;20061;-85
2023/07/27 00:48:13;;;;;;;9.70;5.93;;;15.20;99.90;;;;;;4996629;28;20038;-85
2023/07/27 00:50:38;;;;;;;7.65;3.28;;;15.30;99.90;;;;;;4996745;28;20052;-85
2023/07/27 00:53:07;;;;;;;8.70;3.53;;;15.20;99.90;;;;;;4980506;28;20037;-85
2023/07/27 00:55:33;;;;;;;9.30;3.67;;;15.20;99.90;;;;;;4996360;28;20419;-85
2023/07/27 00:57:59;;;;;;;10.27;3.95;;;15.20;99.90;;;;;;4980465;28;20041;-85
2023/07/27 01:00:26;;;;;;;11.55;5.90;;;15.20;99.90;;;;;;4980344;28;20046;-85
2023/07/27 01:02:51;;;;;;;9.02;3.95;;;15.20;99.90;;;;;;4996370;28;20495;-85
2023/07/27 01:05:17;;;;;;;9.07;5.70;;;15.20;99.90;;;;;;4980630;28;20073;-85
2023/07/27 01:07:43;;;;;;;8.93;5.45;;;15.20;99.90;;;;;;4996599;28;20419;-85
2023/07/27 01:10:10;;;;;;;11.00;3.88;;;15.20;99.90;;;;;;4980700;28;20045;-85
2023/07/27 01:12:46;;;;;;;9.60;5.93;;;15.20;99.90;;;;;;4980381;28;20463;-85
2023/07/27 01:15:21;;;;;;;9.88;3.38;;;15.20;99.90;;;;;;4996243;28;20042;-85
2023/07/27 01:17:58;;;;;;;9.27;4.45;;;15.20;99.90;;;;;;4979713;28;20419;-85
2023/07/27 01:20:47;;;;;;;9.38;5.75;;;15.20;99.90;;;;;;4996329;28;20430;-85
2023/07/27 01:23:48;;;;;;;9.88;6.13;;;15.20;99.90;;;;;;4996108;28;20045;-85
2023/07/27 01:26:36;;;;;;;10.25;6.53;;;15.30;99.90;;;;;;4953800;28;20081;-85
2023/07/27 01:29:06;;;;;;;10.02;6.45;;;15.30;99.90;;;;;;4979921;28;20120;-86
2023/07/27 01:31:41;;;;;;;10.32;6.30;;;15.30;99.90;;;;;;4979914;28;20482;-86
2023/07/27 01:34:19;;;;;;;8.93;3.70;;;15.30;99.90;;;;;;4979675;28;20594;-86
2023/07/27 01:36:49;;;;;;;10.30;3.90;;;15.20;99.90;;;;;;4996010;28;20034;-85
2023/07/27 01:39:17;;;;;;;9.13;3.97;;;15.20;99.90;;;;;;4995883;28;20137;-85
2023/07/27 01:41:44;;;;;;;10.38;6.43;;;15.10;99.90;;;;;;4979946;28;20474;-85
2023/07/27 01:44:11;;;;;;;10.45;6.80;;;15.20;99.90;;;;;;4995795;28;20125;-85
2023/07/27 01:46:38;;;;;;;11.57;7.30;;;15.20;99.90;;;;;;4995514;28;20414;-85
2023/07/27 01:49:06;;;;;;;8.15;3.90;;;15.20;99.90;;;;;;4995780;28;20120;-85
2023/07/27 01:51:33;;;;;;;11.02;4.43;;;15.20;99.90;;;;;;4980010;28;20045;-85
2023/07/27 01:54:00;;;;;;;10.27;4.18;;;15.10;99.90;;;;;;4995761;28;20034;-85
2023/07/27 01:56:28;;;;;;;11.50;4.97;;;15.00;99.90;;;;;;4995500;28;20509;-85
2023/07/27 01:58:54;;;;;;;10.90;6.85;;;15.10;99.90;;;;;;4995608;28;20038;-85
2023/07/27 02:01:20;;;;;;;11.18;6.57;;;15.10;99.90;;;;;;4979371;28;20041;-85
2023/07/27 02:03:49;;;;;;;12.85;5.32;;;15.10;99.90;;;;;;4995706;28;20041;-85
2023/07/27 02:06:15;;;;;;;10.60;6.65;;;15.10;99.90;;;;;;4979665;28;20042;-85
2023/07/27 02:08:41;;;;;;;10.20;4.35;;;15.20;99.90;;;;;;4995908;28;20391;-85
2023/07/27 02:11:09;;;;;;;9.25;3.83;;;15.10;99.90;;;;;;4979841;28;20030;-85
2023/07/27 02:13:43;;;;;;;11.18;7.03;;;15.10;99.90;;;;;;4995474;28;20041;-85
2023/07/27 02:16:23;;;;;;;11.10;6.43;;;15.10;99.90;;;;;;4994945;28;20068;-85
2023/07/27 02:18:50;;;;;;;11.50;6.47;;;15.10;99.90;;;;;;4995415;28;20077;-85
2023/07/27 02:21:17;;;;;;;10.02;4.05;;;15.20;99.90;;;;;;4995181;28;20042;-85
2023/07/27 02:23:44;;;;;;;9.60;5.50;;;15.10;99.90;;;;;;4995299;28;20053;-85
2023/07/27 02:26:10;;;;;;;10.10;6.07;;;15.10;99.90;;;;;;4979181;28;20491;-85
2023/07/27 02:28:35;;;;;;;9.65;5.90;;;15.10;99.90;;;;;;4995547;28;20042;-85
2023/07/27 02:31:01;;;;;;;10.27;6.45;;;15.20;99.90;;;;;;4979057;28;20124;-85
2023/07/27 02:33:26;;;;;;;9.77;3.58;;;15.20;99.90;;;;;;4979056;28;20045;-85
2023/07/27 02:35:53;;;;;;;12.90;6.18;;;15.10;99.90;;;;;;4978317;28;20042;-85
2023/07/27 02:38:19;;;;;;;9.75;5.88;;;15.10;99.90;;;;;;4994501;28;20526;-85
2023/07/27 02:40:44;;;;;;;9.38;5.90;;;15.10;99.90;;;;;;4994678;28;20034;-85
2023/07/27 02:43:10;;;;;;;8.63;3.42;;;15.20;99.90;;;;;;4994759;28;20030;-85
2023/07/27 02:45:35;;;;;;;8.13;3.50;;;15.10;99.90;;;;;;4994756;28;20042;-85
2023/07/27 02:48:01;;;;;;;10.90;6.40;;;15.00;99.90;;;;;;4995039;28;20038;-86
2023/07/27 02:50:27;;;;;;;11.80;7.00;;;15.10;99.90;;;;;;4994946;28;20538;-85
2023/07/27 02:52:52;;;;;;;11.93;7.13;;;15.20;99.90;;;;;;4978301;28;20056;-85
2023/07/27 02:55:18;;;;;;;10.77;4.03;;;15.20;99.90;;;;;;4994165;28;20041;-85
2023/07/27 02:57:43;;;;;;;10.00;6.75;;;15.10;99.90;;;;;;4994103;28;20454;-85
2023/07/27 03:00:10;;;;;;;9.65;4.20;;;15.10;99.90;;;;;;4994258;28;20037;-85
2023/07/27 03:02:35;;;;;;;11.13;7.40;;;15.10;99.90;;;;;;4994244;28;20073;-85
2023/07/27 03:05:04;;;;;;;9.70;4.25;;;15.10;99.90;;;;;;4994242;28;20658;-85
2023/07/27 03:07:30;;;;;;;8.93;4.07;;;15.10;99.90;;;;;;4994642;28;20045;-85
2023/07/27 03:09:55;;;;;;;13.23;7.78;;;15.00;99.90;;;;;;4994764;28;20053;-85
2023/07/27 03:12:21;;;;;;;9.80;4.55;;;15.10;99.90;;;;;;4978175;28;20454;-85
2023/07/27 03:14:46;;;;;;;13.32;7.95;;;15.00;99.90;;;;;;4994299;28;20041;-85
2023/07/27 03:17:12;;;;;;;10.88;7.57;;;15.00;99.90;;;;;;4977407;28;20498;-86
2023/07/27 03:19:38;;;;;;;9.90;4.20;;;15.00;99.90;;;;;;4977750;28;20116;-86
2023/07/27 03:22:05;;;;;;;12.77;4.57;;;15.00;99.90;;;;;;4994088;28;20506;-86
2023/07/27 03:24:30;;;;;;;11.10;5.55;;;14.90;99.90;;;;;;4993951;28;20041;-85
2023/07/27 03:26:56;;;;;;;12.05;8.55;;;14.90;99.90;;;;;;4994151;28;20796;-85
2023/07/27 03:29:21;;;;;;;13.07;8.60;;;14.80;99.90;;;;;;4994073;28;20038;-85
2023/07/27 03:31:47;;;;;;;12.57;8.25;;;14.90;99.90;;;;;;4994057;28;20085;-86
2023/07/27 03:34:12;;;;;;;10.40;4.57;;;14.90;99.90;;;;;;4977593;28;20042;-86
2023/07/27 03:36:38;;;;;;;12.10;8.65;;;14.80;99.90;;;;;;4993577;28;20095;-85
2023/07/27 03:39:04;;;;;;;12.23;8.57;;;14.80;99.90;;;;;;4993690;28;20038;-86
2023/07/27 03:41:29;;;;;;;9.43;4.38;;;14.80;99.90;;;;;;4993772;28;20522;-86
2023/07/27 03:43:55;;;;;;;12.55;8.23;;;14.70;99.90;;;;;;4993620;28;20037;-87
2023/07/27 03:46:20;;;;;;;13.43;8.93;;;14.80;99.90;;;;;;4977760;28;20044;-86
2023/07/27 03:48:48;;;;;;;10.82;4.55;;;14.80;99.90;;;;;;4977666;28;20045;-86
2023/07/27 03:51:13;;;;;;;10.88;5.20;;;14.70;99.90;;;;;;4993684;28;20156;-85
2023/07/27 03:53:39;;;;;;;10.23;4.38;;;14.60;99.90;;;;;;4993542;28;20510;-86
2023/07/27 03:56:05;;;;;;;12.88;8.88;;;14.60;99.90;;;;;;4992897;28;20038;-85
2023/07/27 03:58:31;;;;;;;11.48;8.77;;;14.60;99.90;;;;;;4977339;28;20128;-85
2023/07/27 04:00:57;;;;;;;12.32;5.03;;;14.70;99.90;;;;;;4993378;28;20495;-86
2023/07/27 04:03:23;;;;;;;10.45;5.60;;;14.60;99.90;;;;;;4977483;28;20399;-85
2023/07/27 04:05:50;;;;;;;12.93;9.48;;;14.60;99.90;;;;;;4977465;28;20483;-85
2023/07/27 04:08:16;;;;;;;10.85;4.28;;;14.60;99.90;;;;;;4977752;28;20410;-85
2023/07/27 04:10:42;;;;;;;12.77;8.65;;;14.60;99.90;;;;;;4976912;28;20128;-85
2023/07/27 04:13:07;;;;;;;10.68;4.45;;;14.70;99.90;;;;;;4993606;28;20038;-86
2023/07/27 04:15:33;;;;;;;11.30;5.38;;;14.70;99.90;;;;;;4993383;28;20045;-85
2023/07/27 04:17:59;;;;;;;12.98;9.20;;;14.60;99.90;;;;;;4976899;28;20522;-86
2023/07/27 04:20:25;;;;;;;12.82;9.00;;;14.70;99.90;;;;;;4977012;28;20034;-85
2023/07/27 04:22:50;;;;;;;9.95;5.47;;;14.80;99.90;;;;;;4976919;28;20513;-85
2023/07/27 04:25:16;;;;;;;11.98;5.32;;;14.70;99.90;;;;;;4993185;28;20074;-85
2023/07/27 04:27:42;;;;;;;14.45;10.50;;;14.60;99.90;;;;;;4993317;28;20042;-86
2023/07/27 04:30:07;;;;;;;13.25;10.50;;;14.70;99.90;;;;;;4977270;28;20040;-85
2023/07/27 04:32:33;;;;;;;12.05;5.10;;;14.70;99.90;;;;;;4993381;28;20073;-86
2023/07/27 04:34:58;;;;;;;10.80;4.93;;;14.70;99.90;;;;;;4977202;28;20042;-86
2023/07/27 04:37:24;;;;;;;12.65;9.90;;;14.60;99.90;;;;;;4976317;28;20703;-86
2023/07/27 04:39:50;;;;;;;11.63;5.95;;;14.70;99.90;;;;;;4993139;28;20095;-86
2023/07/27 04:42:15;;;;;;;14.43;9.70;;;14.70;99.90;;;;;;4976783;28;20890;-86
2023/07/27 04:44:41;;;;;;;11.75;5.43;;;14.70;99.90;;;;;;4993362;28;20482;-86
2023/07/27 04:47:06;;;;;;;13.85;10.10;;;14.70;99.90;;;;;;4977027;28;20042;-86
2023/07/27 04:49:32;;;;;;;10.88;4.75;;;14.70;99.90;;;;;;5009698;28;20042;-86
2023/07/27 04:51:58;;;;;;;12.45;9.40;;;14.60;99.90;;;;;;4993064;28;20088;-86
2023/07/27 04:54:23;;;;;;;10.73;4.28;;;14.70;99.90;;;;;;4993073;28;20045;-86
2023/07/27 04:56:49;;;;;;;10.73;5.38;;;14.60;99.90;;;;;;4992658;28;20548;-86
2023/07/27 04:59:14;;;;;;;12.45;9.50;;;14.60;99.90;;;;;;4992637;28;20403;-86
2023/07/27 05:01:40;;;;;;;12.35;6.03;;;14.70;99.90;;;;;;4976826;28;20050;-86
2023/07/27 05:04:06;;;;;;;11.98;9.00;;;14.70;99.90;;;;;;4976942;28;20037;-86
2023/07/27 05:06:31;;;;;;;10.23;5.15;;;14.70;99.90;;;;;;4992808;28;20498;-86
2023/07/27 05:08:57;;;;;;;12.77;9.13;;;14.70;99.90;;;;;;4993135;28;20042;-85
2023/07/27 05:11:22;;;;;;;10.23;4.72;;;14.70;99.90;;;;;;4977013;28;20125;-85
2023/07/27 05:13:50;;;;;;;9.55;4.65;;;14.70;99.90;;;;;;4992704;28;20446;-86
2023/07/27 05:16:15;;;;;;;10.23;4.20;;;14.70;99.90;;;;;;4992282;28;20050;-86
2023/07/27 05:18:41;;;;;;;12.32;8.82;;;14.60;99.90;;;;;;4992475;28;20042;-86
2023/07/27 05:21:07;;;;;;;14.38;9.52;;;14.70;99.90;;;;;;4992472;28;20454;-86
2023/07/27 05:23:32;;;;;;;11.75;8.60;;;14.80;99.90;;;;;;4995118;28;20048;-86
2023/07/27 05:25:58;;;;;;;9.98;4.63;;;14.80;99.90;;;;;;4996138;28;20045;-85
2023/07/27 05:28:25;;;;;;;10.85;5.45;;;14.80;99.90;;;;;;4989569;28;20498;-86
2023/07/27 05:30:50;;;;;;;11.43;5.38;;;14.80;99.90;;;;;;4968026;28;20056;-85
2023/07/27 05:33:17;;;;;;;11.68;8.25;;;14.70;99.90;;;;;;4969730;28;20113;-85
2023/07/27 05:35:47;;;;;;;13.63;9.73;;;14.80;99.90;;;;;;4976588;28;20042;-85
2023/07/27 05:38:13;;;;;;;12.77;5.32;;;14.90;99.90;;;;;;4976048;28;20045;-86
2023/07/27 05:40:38;;;;;;;11.98;9.55;;;14.80;99.90;;;;;;4981344;28;20042;-86
2023/07/27 05:43:04;;;;;;;10.60;5.72;;;14.90;99.90;;;;;;4976664;28;20038;-86
2023/07/27 05:45:30;;;;;;;12.60;6.00;;;14.90;99.90;;;;;;4976077;28;20054;-85
2023/07/27 05:47:56;;;;;;;14.45;10.95;;;14.90;99.90;;;;;;4976421;28;20046;-86
2023/07/27 05:50:22;;;;;;;14.48;11.43;;;14.90;99.90;;;;;;4976397;28;20046;-85
2023/07/27 05:52:48;;;;;;;9.65;5.55;;;15.00;99.90;;;;;;4976438;28;20053;-86
2023/07/27 05:55:13;;;;;;;13.23;7.40;;;15.00;99.90;;;;;;4976103;28;20038;-86
2023/07/27 05:57:41;;;;;;;14.90;11.48;;;15.00;99.90;;;;;;4975862;28;20038;-86
2023/07/27 06:00:07;;;;;;;12.07;5.70;;;15.00;99.90;;;;;;4975981;28;20607;-86
2023/07/27 06:02:33;;;;;;;12.95;7.53;;;15.00;99.90;;;;;;4975795;28;20040;-86
2023/07/27 06:04:59;;;;;;;15.35;12.35;;;15.00;99.90;;;;;;4975529;28;20048;-86
2023/07/27 06:07:26;;;;;;;16.90;13.25;;;15.00;99.90;;;;;;4976319;28;20129;-86
2023/07/27 06:09:51;;;;;;;15.93;13.38;;;15.10;99.90;;;;;;4960158;28;20042;-86
2023/07/27 06:12:18;;;;;;;18.98;13.77;;;15.10;99.90;;;;;;4959989;28;20045;-86
2023/07/27 06:14:44;;;;;;;13.38;7.55;;;15.10;99.90;;;;;;4982683;28;20038;-86
2023/07/27 06:17:10;;;;;;;14.95;8.60;;;15.10;99.90;;;;;;4994947;28;20088;-86
2023/07/27 06:19:36;;;;;;;18.00;13.85;;;15.00;99.90;;;;;;4978399;28;20085;-86
2023/07/27 06:22:01;;;;;;;16.60;13.63;;;15.00;99.90;;;;;;4978639;28;20064;-86
2023/07/27 06:24:27;;;;;;;16.80;14.10;;;15.10;99.90;;;;;;4978985;28;20446;-86
2023/07/27 06:26:53;;;;;;;13.85;8.15;;;15.10;99.90;;;;;;4995106;28;20029;-86
2023/07/27 06:29:18;;;;;;;17.25;14.70;;;15.10;99.90;;;;;;4995442;28;20499;-86
2023/07/27 06:31:44;;;;;;;18.88;15.25;;;15.10;99.90;;;;;;4995057;28;20042;-86
2023/07/27 06:34:10;;;;;;;18.02;15.25;;;15.20;99.90;;;;;;4994504;28;20064;-86
2023/07/27 06:36:36;;;;;;;18.08;15.20;;;15.20;99.90;;;;;;4978050;28;20494;-86
2023/07/27 06:39:01;;;;;;;14.98;12.95;;;15.20;99.90;;;;;;4994208;28;20672;-86
2023/07/27 06:41:27;;;;;;;13.60;6.70;;;15.30;99.90;;;;;;4994336;28;20045;-86
2023/07/27 06:43:52;;;;;;;16.75;14.95;;;15.20;99.90;;;;;;4994633;28;20092;-86
2023/07/27 06:46:19;;;;;;;12.95;7.18;;;15.30;99.90;;;;;;4994440;28;20137;-86
2023/07/27 06:48:48;;;;;;;18.10;16.13;;;15.30;99.90;;;;;;4978779;28;20430;-86
2023/07/27 06:51:16;;;;;;;14.18;9.10;;;15.30;99.90;;;;;;4978331;28;20434;-86
2023/07/27 06:53:41;;;;;;;16.50;14.70;;;15.30;99.90;;;;;;4985373;28;20037;-86
2023/07/27 06:56:07;;;;;;;16.85;14.18;;;15.40;99.90;;;;;;5001386;28;20030;-86
2023/07/27 06:58:33;;;;;;;13.20;8.20;;;15.40;99.90;;;;;;4977997;28;20092;-86
2023/07/27 07:00:58;;;;;;;15.68;8.48;;;15.40;99.90;;;;;;4977754;28;20517;-86
2023/07/27 07:03:24;;;;;;;16.85;14.23;;;15.30;99.90;;;;;;4993936;28;20037;-86
2023/07/27 07:05:53;;;;;;;17.15;13.88;;;15.40;99.90;;;;;;4994238;28;20405;-85
2023/07/27 07:08:19;;;;;;;17.02;15.27;;;15.40;99.90;;;;;;4994573;28;20038;-85
2023/07/27 07:10:45;;;;;;;16.23;14.52;;;15.50;99.90;;;;;;4994695;28;20129;-85
2023/07/27 07:13:10;;;;;;;13.55;8.23;;;15.50;99.90;;;;;;4994185;28;20642;-86
2023/07/27 07:15:36;;;;;;;16.83;13.90;;;15.50;99.90;;;;;;4977856;28;20399;-85
2023/07/27 07:18:02;;;;;;;13.13;7.32;;;15.50;99.90;;;;;;4993529;28;20129;-85
2023/07/27 07:20:27;;;;;;;14.35;12.85;;;15.50;99.90;;;;;;5010989;28;20124;-85
2023/07/27 07:22:53;;;;;;;14.73;13.15;;;15.50;99.90;;;;;;4993739;28;20084;-85
2023/07/27 07:25:18;;;;;;;14.93;13.30;;;15.60;99.90;;;;;;4977230;28;20237;-85
2023/07/27 07:27:44;;;;;;;14.63;12.82;;;15.60;99.90;;;;;;4993869;28;20046;-85
2023/07/27 07:30:11;;;;;;;12.85;8.05;;;15.70;99.90;;;;;;4994326;28;20096;-85
2023/07/27 07:32:37;;;;;;;14.45;12.95;;;15.70;99.90;;;;;;4978122;28;20081;-85
2023/07/27 07:35:02;;;;;;;11.98;7.30;;;15.70;99.90;;;;;;4993983;28;20514;-85
2023/07/27 07:37:28;;;;;;;10.18;7.20;;;15.70;99.90;;;;;;4993453;28;20457;-85
2023/07/27 07:39:53;;;;;;;11.90;10.65;;;15.60;99.90;;;;;;4977008;28;20099;-85
2023/07/27 07:42:19;;;;;;;13.43;11.57;;;15.70;99.90;;;;;;4977637;28;20135;-85
2023/07/27 07:44:46;;;;;;;11.57;6.78;;;15.70;99.90;;;;;;4976909;28;20443;-85
2023/07/27 07:47:12;;;;;;;12.15;10.85;;;15.70;99.90;;;;;;4990917;28;20132;-85
2023/07/27 07:49:37;;;;;;;12.40;11.10;;;15.70;99.90;;;;;;4982654;28;20481;-85
2023/07/27 07:52:03;;;;;;;12.75;11.40;;;15.70;99.90;;;;;;4974855;28;20037;-85
2023/07/27 07:54:29;;;;;;;13.15;11.75;;;15.80;99.90;;;;;;4977273;28;20132;-86
2023/07/27 07:56:55;;;;;;;13.60;11.90;;;15.80;99.90;;;;;;4993255;28;20430;-85
2023/07/27 07:59:21;;;;;;;13.80;12.40;;;15.80;99.90;;;;;;4973992;28;20173;-86
2023/07/27 08:01:46;;;;;;;10.00;6.60;;;15.70;99.90;;;;;;4976945;28;20212;-85
2023/07/27 08:04:12;;;;;;;12.43;11.13;;;15.70;99.90;;;;;;4977301;28;20388;-85
2023/07/27 08:06:38;;;;;;;9.85;7.63;;;15.70;99.90;;;;;;4993227;28;20058;-85
2023/07/27 08:09:03;;;;;;;9.55;7.35;;;15.70;99.90;;;;;;4993712;28;20033;-85
2023/07/27 08:11:29;;;;;;;14.00;12.60;;;15.60;99.90;;;;;;5011150;28;20414;-85
2023/07/27 08:14:00;;;;;;;10.15;6.95;;;15.60;99.90;;;;;;4993530;28;20030;-85
2023/07/27 08:16:25;;;;;;;12.93;11.63;;;15.60;99.90;;;;;;4976664;28;20045;-85
2023/07/27 08:18:51;;;;;;;13.75;6.95;;;15.70;99.90;;;;;;5009090;28;20050;-85
2023/07/27 08:21:16;;;;;;;12.98;11.68;;;15.70;99.90;;;;;;4976143;28;20048;-85
2023/07/27 08:23:42;;;;;;;14.07;12.57;;;15.70;99.90;;;;;;4992613;28;20046;-85
2023/07/27 08:26:09;;;;;;;12.98;11.77;;;15.80;99.90;;;;;;4992235;28;20128;-85
2023/07/27 08:28:34;;;;;;;9.48;6.22;;;15.80;99.90;;;;;;4992793;28;20634;-85
2023/07/27 08:31:05;;;;;;;11.45;7.63;;;15.80;99.90;;;;;;4993560;28;20045;-86
2023/07/27 08:33:31;;;;;;;13.55;12.23;;;15.70;99.90;;;;;;4993107;28;20046;-86
2023/07/27 08:35:57;;;;;;;12.73;11.43;;;15.80;99.90;;;;;;4992603;28;20046;-85
2023/07/27 08:38:24;;;;;;;9.75;7.38;;;15.90;99.90;;;;;;5008973;28;20121;-86
2023/07/27 08:41:00;;;;;;;10.20;7.00;;;15.90;99.90;;;;;;4976553;28;20046;-86
2023/07/27 08:43:26;;;;;;;10.02;9.00;;;15.90;99.90;;;;;;4976558;28;20041;-86
2023/07/27 08:45:53;;;;;;;9.50;5.97;;;15.90;99.90;;;;;;4975419;28;20050;-85
2023/07/27 08:48:19;;;;;;;10.40;9.30;;;15.90;99.90;;;;;;4992444;28;20046;-86
2023/07/27 08:50:47;;;;;;;10.70;9.60;;;15.90;99.90;;;;;;4993055;28;20052;-86
2023/07/27 08:53:14;;;;;;;8.02;5.45;;;16.00;99.90;;;;;;4977254;28;20108;-86
2023/07/27 08:55:40;;;;;;;9.00;5.63;;;16.00;99.90;;;;;;4976237;28;20042;-86
2023/07/27 08:58:07;;;;;;;10.85;8.80;;;15.90;99.90;;;;;;4979632;28;20064;-86
2023/07/27 09:00:33;;;;;;;8.63;5.13;;;16.00;99.90;;;;;;4995149;28;20132;-85
2023/07/27 09:02:59;;;;;;;8.65;7.65;;;16.00;99.90;;;;;;4977054;28;20042;-86
2023/07/27 09:05:59;;;;;;;9.57;7.80;;;16.10;99.90;;;;;;4970457;28;20101;-86
2023/07/27 09:08:29;;;;;;;9.07;5.20;;;16.20;99.90;;;;;;4986356;28;20096;-86
2023/07/27 09:11:07;;;;;;;8.52;5.22;;;16.10;99.90;;;;;;4971169;28;20041;-86
2023/07/27 09:13:33;;;;;;;8.32;6.78;;;16.10;99.90;;;;;;4971654;28;20049;-86
2023/07/27 09:16:02;;;;;;;8.60;6.70;;;16.20;99.90;;;;;;4981627;28;20046;-86
2023/07/27 09:18:32;;;;;;;8.70;6.93;;;16.30;99.90;;;;;;4976631;28;20070;-86
2023/07/27 09:20:58;;;;;;;8.73;6.75;;;16.30;99.90;;;;;;4976558;28;20038;-86
2023/07/27 09:23:24;;;;;;;7.70;5.88;;;16.40;99.90;;;;;;4976352;28;20478;-85
2023/07/27 09:25:56;;;;;;;6.50;4.60;;;16.40;99.90;;;;;;4976523;28;20038;-85
2023/07/27 09:28:26;;;;;;;7.55;5.38;;;16.40;99.90;;;;;;4960981;28;20408;-86
2023/07/27 09:30:58;;;;;;;7.00;3.75;;;16.50;99.90;;;;;;4961114;28;20195;-86
2023/07/27 09:33:24;;;;;;;6.22;3.17;;;16.40;99.90;;;;;;4960861;28;20046;-86
2023/07/27 09:35:50;;;;;;;6.20;3.22;;;16.40;99.90;;;;;;4975932;28;20698;-86
2023/07/27 09:38:15;;;;;;;7.68;5.45;;;16.40;99.90;;;;;;4976247;28;20046;-86
2023/07/27 09:40:41;;;;;;;7.63;5.22;;;16.50;99.90;;;;;;4995213;28;20038;-86
2023/07/27 09:43:07;;;;;;;5.78;2.85;;;16.50;99.90;;;;;;4981497;28;20046;-86
2023/07/27 09:45:37;;;;;;;7.15;5.00;;;16.50;99.90;;;;;;4976438;28;20138;-86
2023/07/27 09:48:03;;;;;;;6.70;3.25;;;16.50;99.90;;;;;;4983247;28;20046;-86
2023/07/27 09:50:31;;;;;;;7.18;4.80;;;16.60;99.90;;;;;;4968029;28;20395;-86
2023/07/27 09:52:58;;;;;;;7.10;5.05;;;16.60;99.90;;;;;;4986593;28;20077;-86
2023/07/27 09:55:25;;;;;;;6.65;4.72;;;16.70;99.90;;;;;;4984741;28;20104;-86
2023/07/27 09:57:51;;;;;;;7.30;3.33;;;16.70;99.90;;;;;;4986470;28;20125;-86
2023/07/27 10:00:17;;;;;;;7.25;5.05;;;16.70;99.90;;;;;;4984195;28;20042;-86
2023/07/27 10:02:43;;;;;;;7.78;5.30;;;16.70;99.90;;;;;;4968007;28;20080;-86
2023/07/27 10:05:09;;;;;;;6.75;3.33;;;16.80;99.90;;;;;;4985176;28;20034;-86
2023/07/27 10:07:34;;;;;;;7.68;6.15;;;16.80;99.90;;;;;;4985270;28;20117;-86
2023/07/27 10:10:31;;;;;;;7.65;5.60;;;16.90;99.90;;;;;;5001257;28;20081;-86
2023/07/27 10:12:58;;;;;;;6.63;3.90;;;17.00;99.90;;;;;;4986316;28;20038;-86
2023/07/27 10:15:28;;;;;;;7.30;5.30;;;17.00;99.90;;;;;;4967763;28;20550;-86
2023/07/27 10:17:58;;;;;;;6.50;3.10;;;17.00;99.90;;;;;;4984153;28;20034;-86
2023/07/27 10:20:30;;;;;;;9.43;6.00;;;17.00;99.90;;;;;;4986105;28;20124;-86
2023/07/27 10:23:19;;;;;;;7.32;5.63;;;17.20;99.90;;;;;;4985410;28;20074;-86
2023/07/27 10:26:00;;;;;;;7.63;5.25;;;17.20;99.90;;;;;;5001491;28;20052;-86
2023/07/27 10:28:49;;;;;;;7.22;5.03;;;17.30;99.90;;;;;;4984482;28;20039;-86
2023/07/27 10:31:14;;;;;;;6.10;3.08;;;17.40;99.90;;;;;;5018054;28;20029;-87
2023/07/27 10:33:48;;;;;;;7.00;4.80;;;17.40;99.90;;;;;;4967716;28;20065;-86
2023/07/27 10:36:14;;;;;;;7.43;4.43;;;17.40;99.90;;;;;;4967823;28;20100;-86
2023/07/27 10:38:48;;;;;;;6.20;3.95;;;17.40;99.90;;;;;;4985314;28;20045;-86
2023/07/27 10:41:15;;;;;;;6.93;3.90;;;17.50;99.90;;;;;;4968784;28;20038;-86
2023/07/27 10:44:05;;;;;;;6.57;4.38;;;17.50;99.90;;;;;;4975295;28;20491;-86
2023/07/27 10:46:31;;;;;;;6.20;3.38;;;17.60;99.90;;;;;;5001588;28;20134;-86
2023/07/27 10:49:05;;;;;;;6.03;3.63;;;17.50;99.90;;;;;;4964389;28;20125;-86
2023/07/27 10:51:30;;;;;;;6.60;3.97;;;17.60;99.90;;;;;;4959322;28;20128;-86
2023/07/27 10:53:56;;;;;;;6.10;3.50;;;17.60;99.90;;;;;;4975584;28;20129;-86
2023/07/27 10:56:22;;;;;;;6.10;3.72;;;17.60;99.90;;;;;;4974679;28;20561;-86
2023/07/27 10:58:50;;;;;;;6.85;3.60;;;17.60;99.90;;;;;;4958959;28;20046;-87
2023/07/27 11:01:15;;;;;;;6.78;3.90;;;17.60;99.90;;;;;;4974636;28;20030;-86
2023/07/27 11:03:41;;;;;;;6.57;3.97;;;17.60;99.90;;;;;;4975034;28;20101;-86
2023/07/27 11:06:07;;;;;;;5.82;3.55;;;17.60;99.90;;;;;;4958437;28;20053;-86
2023/07/27 11:08:37;;;;;;;5.30;2.25;;;17.70;99.90;;;;;;4959079;28;20518;-86
2023/07/27 11:11:20;;;;;;;5.80;3.47;;;17.60;99.90;;;;;;4975193;28;20511;-86
2023/07/27 11:13:46;;;;;;;6.22;3.67;;;17.60;99.90;;;;;;4975332;28;20061;-86
2023/07/27 11:16:13;;;;;;;5.15;2.30;;;17.80;99.90;;;;;;4977538;28;20121;-87
2023/07/27 11:18:40;;;;;;;6.00;3.60;;;17.70;99.90;;;;;;4978554;28;20029;-86
2023/07/27 11:21:08;;;;;;;7.30;4.10;;;17.80;99.90;;;;;;4994260;28;20038;-86
2023/07/27 11:23:43;;;;;;;6.72;4.55;;;17.90;99.90;;;;;;4994168;28;20498;-86
2023/07/27 11:26:09;;;;;;;6.32;4.20;;;18.00;99.90;;;;;;4977458;28;20053;-85
2023/07/27 11:28:35;;;;;;;7.20;4.03;;;18.00;99.90;;;;;;4994135;28;20050;-86
2023/07/27 11:31:00;;;;;;;6.80;4.53;;;18.00;99.90;;;;;;4994345;28;20052;-86
2023/07/27 11:33:32;;;;;;;5.97;3.72;;;18.00;99.90;;;;;;4978126;28;20414;-86
2023/07/27 11:35:59;;;;;;;4.28;2.00;;;18.10;99.90;;;;;;4993364;28;20054;-86
2023/07/27 11:38:25;;;;;;;6.07;2.40;;;18.10;99.90;;;;;;4994020;28;20037;-86
2023/07/27 11:40:55;;;;;;;5.25;2.75;;;18.20;99.90;;;;;;4977363;28;20167;-86
2023/07/27 11:43:20;;;;;;;5.28;2.70;;;18.20;99.90;;;;;;4993533;28;20061;-86
2023/07/27 11:45:47;;;;;;;4.40;2.50;;;18.30;99.90;;;;;;4993427;28;20131;-86
2023/07/27 11:48:13;;;;;;;5.18;2.70;;;18.30;99.90;;;;;;4977559;28;20590;-86
2023/07/27 11:50:39;;;;;;;5.15;2.80;;;18.30;99.90;;;;;;5010225;28;20146;-86
2023/07/27 11:53:09;;;;;;;5.45;3.03;;;18.40;99.90;;;;;;4993602;28;20120;-87
2023/07/27 11:55:38;;;;;;;5.65;3.30;;;18.40;99.90;;;;;;4993255;28;20052;-86
2023/07/27 11:58:07;;;;;;;6.68;3.67;;;18.50;99.90;;;;;;5009958;28;20033;-86
2023/07/27 12:00:33;;;;;;;5.63;3.47;;;18.50;99.90;;;;;;4993169;28;20069;-87
2023/07/27 12:02:59;;;;;;;6.22;3.65;;;18.50;99.90;;;;;;4976970;28;20034;-86
2023/07/27 12:05:24;;;;;;;6.88;4.15;;;18.60;99.90;;;;;;4990122;28;20038;-86
2023/07/27 12:07:50;;;;;;;7.00;4.25;;;18.70;99.90;;;;;;4992663;28;20121;-86
2023/07/27 12:10:17;;;;;;;6.68;4.63;;;18.70;99.90;;;;;;4993760;28;20050;-86
2023/07/27 12:13:07;;;;;;;8.20;4.70;;;18.80;99.90;;;;;;4981153;28;20045;-87
2023/07/27 12:15:38;;;;;;;7.10;4.40;;;18.80;99.90;;;;;;4973859;28;20050;-86
2023/07/27 12:18:07;;;;;;;7.32;4.15;;;18.80;99.90;;;;;;4974043;28;20399;-86
2023/07/27 12:20:35;;;;;;;6.07;3.58;;;18.90;99.90;;;;;;4958043;28;20038;-87
2023/07/27 12:23:01;;;;;;;5.00;2.70;;;18.90;99.90;;;;;;4974294;28;20069;-86
2023/07/27 12:25:28;;;;;;;4.50;2.55;;;18.90;99.90;;;;;;4957584;28;20448;-86
2023/07/27 12:27:54;;;;;;;7.03;2.60;;;18.90;99.90;;;;;;4956449;28;20088;-87
2023/07/27 12:30:21;;;;;;;4.90;2.35;;;19.00;99.90;;;;;;4974683;28;20038;-87
2023/07/27 12:32:48;;;;;;;4.70;2.42;;;19.00;99.90;;;;;;4976865;28;20072;-87
2023/07/27 12:35:14;;;;;;;5.88;2.63;;;19.00;99.90;;;;;;4961637;28;20574;-86
2023/07/27 12:37:39;;;;;;;5.40;2.70;;;19.00;99.90;;;;;;4977691;28;20134;-87
2023/07/27 12:40:06;;;;;;;5.65;3.00;;;19.10;99.90;;;;;;4977417;28;20495;-87
2023/07/27 12:42:31;;;;;;;6.57;3.55;;;19.10;99.90;;;;;;4977155;28;20097;-86